Tiempo atmosférico en la estación meteorológica de Machichaco, Bizkaia (93 m.)



Fecha
DESCASC
Temp. máxima en grados centígrados (hora)
DESCASC
Temp. mínima en grados centígrados (hora)
DESCASC
Temp. media en grados centígrados
DESCASC
Racha de viento máxima en m/sg (hora)
DESCASC
Velocidad máxima media en intervalos de 10 minutos(hora)
DESCASC
Precipitaciones diarias en mm
DESCASC
Precipitaciones de 00:00 a 06:00 en mm
DESCASC
Precipitaciones de 06:00 a 12:00 en mm
DESCASC
Precipitaciones de 12:00 a 18:00 en mm
DESCASC
Precipitaciones de 18:00 a 24:00 en mm
DESCASC
18-08-2019 22.3 (12:00) 17 (23:30) 19.6 14.17 (12:20) 10.83 (10:10) 5 0 0 3.2 1.8
17-08-2019 24.7 (12:50) 17.4 (05:20) 21.1 8.61 (00:30) 4.72 (00:30) 0 0 0 0 0
16-08-2019 23.2 (18:00) 16.7 (05:20) 20 8.33 (09:30) 6.39 (19:20) 0 0 0 0 0
15-08-2019 23.1 (16:10) 16.9 (00:00) 20 15.83 (05:10) 12.5 (06:20) 2.8 2.6 0.2 0 0
14-08-2019 22.1 (13:30) 16.4 (00:00) 19.3 12.22 (22:30) 9.72 (22:40) 0 0 0 0 0
13-08-2019 21.7 (14:20) 15.6 (00:00) 18.7 6.94 (21:50) 5 (21:50) 0 0 0 0 0
12-08-2019 19.7 (18:10) 15.7 (00:00) 17.7 20.83 (13:00) 15.83 (14:40) 1.2 0 1.2 0 0
11-08-2019 21.7 (15:30) 16 (00:00) 18.9 13.89 (23:40) 11.39 (23:50) 7.6 1 6.6 0 0
10-08-2019 23.8 (16:50) 18.5 (00:00) 21.1 9.72 (06:10) 6.39 (06:10) 1.2 0 0.4 0 0.8
09-08-2019 30.9 (00:30) 20.8 (00:00) 25.8 13.89 (08:30) 9.44 (18:10) 0 0 0 0 0
08-08-2019 31.6 (13:30) 20.5 (00:00) 26.1 12.5 (09:10) 7.5 (09:40) 0 0 0 0 0
07-08-2019 24.3 (15:00) 19.5 (00:00) 21.9 9.17 (18:50) 6.39 (22:50) 0 0 0 0 0
06-08-2019 23.5 (14:40) 18.3 (00:00) 20.9 7.22 (23:40) 5.28 (20:00) 0 0 0 0 0
05-08-2019 23.2 (13:10) 17.5 (00:00) 20.4 6.11 (18:30) 4.72 (17:00) 0 0 0 0 0
04-08-2019 22.1 (16:20) 19.3 (00:00) 20.7 8.61 (02:50) 6.67 (00:20) 0 0 0 0 0
03-08-2019 23.4 (19:10) 18.6 (00:00) 21 10 (22:00) 8.33 (22:50) 0 0 0 0 0
02-08-2019 22.7 (15:10) 18.5 (00:00) 20.6 7.22 (21:20) 5.56 (21:00) 0 0 0 0 0
01-08-2019 21 (13:40) 17.6 (00:00) 19.3 14.44 (05:40) 10.28 (07:40) 4.4 4.2 0.2 0 0
31-07-2019 21.5 (12:50) 14.8 (00:00) 18.2 8.33 (13:40) 6.39 (13:40) 0 0 0 0 0
30-07-2019 20.2 (19:20) 16.6 (00:00) 18.4 20 (09:40) 16.94 (05:30) 2 1.2 0.8 0 0
29-07-2019 21.9 (13:10) 18.6 (00:00) 20.3 17.78 (11:30) 13.89 (11:20) 0 0 0 0 0
28-07-2019 21.4 (15:50) 16.1 (00:00) 18.8 15.83 (00:40) 11.11 (00:40) 12.6 4.8 7.8 0 0
27-07-2019 18.2 (16:20) 15.8 (00:00) 17 16.94 (17:50) 13.89 (17:50) 14.6 3 2.4 1 8.2
26-07-2019 21.4 (02:10) 16.8 (00:00) 19.1 16.39 (18:00) 13.06 (18:00) 21 6 7.6 4.6 2.8
25-07-2019 24.8 (14:20) 20.8 (00:00) 22.8 15.83 (01:10) 11.39 (02:00) 2.4 0 0 0 2.4
24-07-2019 30.2 (22:10) 21.1 (00:00) 25.7 12.5 (23:59) 8.61 (16:20) 0.6 0 0 0 0.6
23-07-2019 33.6 (15:20) 20.8 (00:00) 27.2 21.94 (21:10) 16.94 (21:40) 1 0 0 0 1
22-07-2019 25.1 (14:20) 20.7 (00:00) 22.9 14.72 (23:40) 10 (23:30) 0 0 0 0 0
21-07-2019 24 (16:30) 19.6 (00:00) 21.8 9.17 (13:40) 7.78 (13:40) 1.4 0 1.4 0 0

Gráficas

Temp. máximas Temp. mínimas Temp. medias Precipitaciones Rachas de viento máximas Velocidades máximas media en intervalos de 10 minutos

Datos horarios

Fecha y hora oficial Temperatura (ºC) Velocidad del viento (km/h) Dirección del viento Racha (km/h) Dirección de racha Precipitación (mm) Presión (hPa) Tendencia (hPa) Humedad (%)
2019-08-19 23:00:00 19.2 20 Nordeste 29 Nordeste 0 -- -- 69
2019-08-19 22:00:00 19 21 Nordeste 32 Nordeste 0 -- -- 71
2019-08-19 21:00:00 19.2 15 Nordeste 24 Nordeste 0 -- -- 76
2019-08-19 20:00:00 19.1 14 Nordeste 22 Nordeste 0 -- -- 77
2019-08-19 19:00:00 19 11 Nordeste 17 Nordeste 0 -- -- 75
2019-08-19 18:00:00 19.1 2 Oeste 8 Noroeste 0 -- -- 78
2019-08-19 17:00:00 19.4 4 Sudeste 11 Este 0 -- -- 74
2019-08-19 16:00:00 19 3 Oeste 14 Oeste 0 -- -- 81
2019-08-19 15:00:00 18.2 7 Oeste 14 Oeste 0.2 -- -- 86
2019-08-19 14:00:00 17.3 7 Sudeste 21 Oeste 0 -- -- 86
2019-08-19 13:00:00 18 16 Oeste 22 Oeste 0 -- -- 84
2019-08-19 12:00:00 18.3 17 Oeste 22 Oeste 0 -- -- 86
2019-08-19 11:00:00 18.2 13 Oeste 19 Oeste 0 -- -- 81
2019-08-19 10:00:00 16.9 10 Sudoeste 17 Oeste 0 -- -- 86
2019-08-19 09:00:00 16.6 7 Sur 21 Sudeste 0 -- -- 84
2019-08-19 08:00:00 15.7 13 Sudeste 19 Sudeste 0.2 -- -- 91
2019-08-19 07:00:00 15.7 2 Sudeste 10 Sudeste 0.2 -- -- 93
2019-08-19 06:00:00 16.1 8 Sudoeste 25 Oeste 4.6 -- -- 94
2019-08-19 05:00:00 17 17 Sudoeste 24 Oeste 0 -- -- 89
2019-08-19 04:00:00 17.3 15 Sudoeste 27 Oeste 0 -- -- 87
2019-08-19 03:00:00 17.4 5 Oeste 19 Oeste 0 -- -- 80
2019-08-19 02:00:00 17.6 13 Oeste 26 Oeste 0 -- -- 86
2019-08-19 01:00:00 17.5 18 Oeste 32 Oeste 0 -- -- 89
2019-08-19 00:00:00 17.1 20 Oeste 33 Sudoeste -- -- -- 93
2019-08-18 23:00:00 17.5 9 Oeste 29 Oeste 0 -- -- 92
2019-08-18 22:00:00 17.6 23 Oeste 33 Oeste 1.4 -- -- 91
2019-08-18 21:00:00 17.5 24 Oeste 44 Noroeste 0 -- -- 88
2019-08-18 20:00:00 18.1 30 Oeste 48 Oeste 0 -- -- 92
2019-08-18 19:00:00 17.8 36 Noroeste 45 Noroeste 0.2 -- -- 91
2019-08-18 18:00:00 18.3 35 Noroeste 50 Noroeste 0.2 -- -- 94
2019-08-18 17:00:00 18.3 31 Noroeste 46 Noroeste 2.8 -- -- 98
2019-08-18 16:00:00 19.5 33 Oeste 41 Oeste 0.2 -- -- 92
2019-08-18 15:00:00 21 27 Oeste 36 Oeste 0 -- -- 85
2019-08-18 14:00:00 21.1 32 Oeste 40 Oeste 0 -- -- 85
2019-08-18 13:00:00 20.9 32 Oeste 51 Oeste 0 -- -- 88
2019-08-18 12:00:00 22.3 24 Oeste 38 Oeste 0 -- -- 87
2019-08-18 11:00:00 21.7 30 Oeste 46 Oeste 0 -- -- 91
2019-08-18 10:00:00 21.3 39 Oeste 49 Oeste 0 -- -- 89
2019-08-18 09:00:00 21.1 22 Oeste 38 Sudoeste 0 -- -- 85
2019-08-18 08:00:00 20.5 26 Oeste 36 Oeste 0 -- -- 81
2019-08-18 07:00:00 20.1 21 Sudoeste 28 Sudoeste 0 -- -- 84
2019-08-18 06:00:00 20.4 5 Sudeste 15 Este 0 -- -- 74
2019-08-18 05:00:00 22 8 Sudeste 26 Sudeste 0 -- -- 68
2019-08-18 04:00:00 21 15 Sudeste 24 Sudeste 0 -- -- 79
2019-08-18 03:00:00 21.3 14 Sudeste 24 Sudeste 0 -- -- 78
2019-08-18 02:00:00 20.7 9 Sudeste 14 Sudeste 0 -- -- 81
2019-08-18 01:00:00 20.7 8 Sudeste 16 Sudeste 0 -- -- 81
2019-08-18 00:00:00 20.9 10 Sudeste 16 Sudeste 0 -- -- 79
2019-08-17 23:00:00 21 7 Sudeste 15 Sudeste 0 -- -- 78
2019-08-17 22:00:00 20.9 8 Este 12 Este 0 -- -- 77
2019-08-17 21:00:00 21.7 4 Este 9 Este 0 -- -- 70
2019-08-17 20:00:00 24.5 4 Sudeste 14 Este 0 -- -- 59
2019-08-17 19:00:00 24.2 12 Sudeste 21 Sudeste 0 -- -- 59
2019-08-17 18:00:00 23.9 12 Sudeste 21 Sudeste 0 -- -- 74
2019-08-17 17:00:00 23.9 15 Este 22 Este 0 -- -- 74
2019-08-17 16:00:00 23.9 8 Nordeste 15 Oeste 0 -- -- 71
2019-08-17 15:00:00 24.1 14 Oeste 20 Oeste 0 -- -- 65
2019-08-17 14:00:00 24 13 Oeste 20 Oeste 0 -- -- 70
2019-08-17 13:00:00 24.7 5 Este 18 Sudeste 0 -- -- 63
2019-08-17 12:00:00 23.3 13 Este 20 Este 0 -- -- 74
2019-08-17 11:00:00 23.1 12 Este 21 Sudeste 0 -- -- 68
2019-08-17 10:00:00 22.5 10 Este 17 Este 0 -- -- 67
2019-08-17 09:00:00 21.7 10 Este 16 Sudeste 0 -- -- 71
2019-08-17 08:00:00 19.7 8 Sudeste 16 Sudeste 0 -- -- 78
2019-08-17 07:00:00 18.4 9 Sudeste 16 Sudeste 0 -- -- 77
2019-08-17 06:00:00 17.8 6 Sudeste 10 Sudeste 0 -- -- 80
2019-08-17 05:00:00 18.2 2 Oeste 12 Sudoeste 0 -- -- 84
2019-08-17 04:00:00 18.8 9 Oeste 17 Oeste 0 -- -- 82
2019-08-17 03:00:00 18.3 9 Sudoeste 18 Oeste 0 -- -- 87
2019-08-17 02:00:00 19 12 Oeste 21 Sudoeste 0 -- -- 84
2019-08-17 01:00:00 19.4 13 Oeste 31 Sudoeste 0 -- -- 86
2019-08-17 00:00:00 19.6 13 Oeste 23 Oeste 0 -- -- 80
2019-08-16 23:00:00 19.6 10 Sudoeste 30 Sudoeste 0 -- -- 76
2019-08-16 22:00:00 20.3 17 Oeste 27 Oeste 0 -- -- 70
2019-08-16 21:00:00 20.8 11 Oeste 28 Oeste 0 -- -- 60
2019-08-16 20:00:00 21.7 21 Oeste 30 Oeste 0 -- -- 61
2019-08-16 19:00:00 22.7 20 Oeste 24 Oeste 0 -- -- 55
2019-08-16 18:00:00 23.2 7 Oeste 13 Este 0 -- -- 61
2019-08-16 17:00:00 22.2 7 Este 15 Este 0 -- -- 70
2019-08-16 16:00:00 22.3 12 Este 18 Este 0 -- -- 70
2019-08-16 15:00:00 21.9 14 Este 19 Este 0 -- -- 70
2019-08-16 14:00:00 21.8 15 Este 25 Este 0 -- -- 71
2019-08-16 13:00:00 21.6 20 Este 28 Este 0 -- -- 71
2019-08-16 12:00:00 21.3 21 Este 27 Este 0 -- -- 71
2019-08-16 11:00:00 21.2 15 Este 24 Este 0 -- -- 70
2019-08-16 10:00:00 20.4 14 Este 30 Este 0 -- -- 73
2019-08-16 09:00:00 19.7 13 Sudeste 23 Sudeste 0 -- -- 73
2019-08-16 08:00:00 18.3 10 Sudeste 18 Sudeste 0 -- -- 75
2019-08-16 07:00:00 17 9 Sudeste 18 Sudeste 0 -- -- 78
2019-08-16 06:00:00 16.7 8 Sudeste 12 Sudeste 0 -- -- 78
2019-08-16 05:00:00 16.9 5 Sudeste 14 Sudeste 0 -- -- 79
2019-08-16 04:00:00 17.2 8 Sudeste 16 Sudeste 0 -- -- 80
2019-08-16 03:00:00 17.3 8 Sudeste 16 Sudeste 0 -- -- 80
2019-08-16 02:00:00 17.6 8 Sudeste 14 Sudeste 0 -- -- 79
2019-08-16 01:00:00 17.6 7 Sudeste 15 Sudeste 0 -- -- 80
2019-08-16 00:00:00 17.6 8 Este 12 Sudeste 0 -- -- 82
2019-08-15 23:00:00 17.2 8 Este 11 Este 0 -- -- 86
2019-08-15 22:00:00 17.2 7 Este 11 Este 0 -- -- 84
2019-08-15 21:00:00 18.9 5 Este 10 Este 0 -- -- 76
2019-08-15 20:00:00 21.3 6 Sudeste 9 Este 0 -- -- 68
2019-08-15 19:00:00 21.4 4 Nordeste 9 Norte 0 -- -- 66
2019-08-15 18:00:00 21.9 3 Norte 14 Noroeste 0 -- -- 65
2019-08-15 17:00:00 22.7 8 Noroeste 15 Noroeste 0 -- -- 63
2019-08-15 16:00:00 22.9 10 Noroeste 18 Oeste 0 -- -- 62
2019-08-15 15:00:00 21.9 16 Noroeste 23 Oeste 0 -- -- 64
2019-08-15 14:00:00 21.1 15 Noroeste 22 Oeste 0 -- -- 67
2019-08-15 13:00:00 20.3 17 Noroeste 22 Oeste 0 -- -- 69
2019-08-15 12:00:00 19.7 14 Oeste 32 Oeste 0 -- -- 78
2019-08-15 11:00:00 18.4 14 Oeste 29 Oeste 0 -- -- 90
2019-08-15 10:00:00 18 24 Oeste 34 Oeste 0.2 -- -- 93
2019-08-15 09:00:00 18.4 19 Oeste 40 Oeste 0 -- -- 88
2019-08-15 08:00:00 18.6 37 Oeste 46 Oeste 0 -- -- 84
2019-08-15 07:00:00 18.9 41 Oeste 53 Oeste 0 -- -- 84
2019-08-15 06:00:00 18.9 41 Oeste 57 Oeste 0 -- -- 84
2019-08-15 05:00:00 18.9 37 Oeste 50 Oeste 0 -- -- 90
2019-08-15 04:00:00 19.3 30 Oeste 42 Oeste 2.4 -- -- 96
2019-08-15 03:00:00 19.5 13 Oeste 28 Sudoeste 0 -- -- 96
2019-08-15 02:00:00 19.3 18 Oeste 30 Oeste 0.2 -- -- 98
2019-08-15 01:00:00 19.3 16 Oeste 27 Oeste 0 -- -- 97
2019-08-15 00:00:00 19 15 Oeste 33 Oeste 0 -- -- 97
2019-08-14 23:00:00 19.1 26 Oeste 44 Oeste 0 -- -- 95
2019-08-14 22:00:00 20.5 29 Oeste 37 Oeste 0 -- -- 83
2019-08-14 21:00:00 20.4 18 Oeste 30 Oeste 0 -- -- 83
2019-08-14 20:00:00 20.6 21 Oeste 34 Oeste 0 -- -- 78
2019-08-14 19:00:00 21 28 Oeste 38 Oeste 0 -- -- 77
2019-08-14 18:00:00 21.2 31 Oeste 40 Oeste 0 -- -- 75
2019-08-14 17:00:00 22 30 Oeste 35 Oeste 0 -- -- 77
2019-08-14 16:00:00 21.6 22 Oeste 31 Oeste 0 -- -- 70
2019-08-14 15:00:00 21.8 22 Oeste 30 Oeste 0 -- -- 68
2019-08-14 14:00:00 21.7 21 Oeste 26 Oeste 0 -- -- 64
2019-08-14 13:00:00 21.6 12 Oeste 17 Oeste 0 -- -- 62
2019-08-14 12:00:00 20.9 5 Oeste 8 Oeste 0 -- -- 64
2019-08-14 11:00:00 20.9 3 Noroeste 7 Norte 0 -- -- 64
2019-08-14 10:00:00 20.1 0 Calma 9 Oeste 0 -- -- 64
2019-08-14 09:00:00 19.6 5 Sudeste 14 Sudeste 0 -- -- 59
2019-08-14 08:00:00 17.4 3 Sudeste 12 Sudeste 0 -- -- 65
2019-08-14 07:00:00 16.6 10 Sudeste 23 Sur 0 -- -- 72
2019-08-14 06:00:00 17.4 12 Sudeste 23 Sudeste 0 -- -- 67
2019-08-14 05:00:00 17 10 Sudeste 17 Sudeste 0 -- -- 67
2019-08-14 04:00:00 17.2 10 Sudeste 20 Sudeste 0 -- -- 70
2019-08-14 03:00:00 17.3 11 Sudeste 21 Sudeste 0 -- -- 74
2019-08-14 02:00:00 17.3 9 Sudeste 17 Este 0 -- -- 74
2019-08-14 01:00:00 17.3 8 Sudeste 16 Sudeste 0 -- -- 73
2019-08-14 00:00:00 17.5 9 Sudeste 15 Sudeste -- -- -- 73
2019-08-13 23:00:00 17.6 10 Sudeste 18 Sudeste 0 -- -- 72
2019-08-13 22:00:00 18.1 13 Este 25 Este 0 -- -- 71
2019-08-13 21:00:00 18.5 17 Este 24 Este 0 -- -- 66
2019-08-13 20:00:00 19.5 15 Este 22 Este 0 -- -- 63
2019-08-13 19:00:00 19.9 16 Este 22 Este 0 -- -- 62
2019-08-13 18:00:00 20.5 15 Este 21 Este 0 -- -- 61
2019-08-13 17:00:00 21 12 Nordeste 18 Nordeste 0 -- -- 62
2019-08-13 16:00:00 21.3 12 Nordeste 15 Nordeste 0 -- -- 60
2019-08-13 15:00:00 21.4 10 Nordeste 14 Nordeste 0 -- -- 58
2019-08-13 14:00:00 21.3 6 Noroeste 11 Oeste 0 -- -- 62
2019-08-13 13:00:00 20.3 6 Oeste 15 Oeste 0 -- -- 66
2019-08-13 12:00:00 19.5 12 Oeste 18 Oeste 0 -- -- 72
2019-08-13 11:00:00 19.3 10 Oeste 17 Oeste 0 -- -- 73
2019-08-13 10:00:00 19.5 10 Oeste 16 Oeste 0 -- -- 72
2019-08-13 09:00:00 18.2 9 Sudoeste 16 Sudoeste 0 -- -- 75
2019-08-13 08:00:00 16.4 13 Oeste 19 Sudoeste 0 -- -- 80
2019-08-13 07:00:00 16.1 11 Sudoeste 15 Oeste 0 -- -- 80
2019-08-13 06:00:00 16.2 11 Oeste 17 Oeste 0 -- -- 80
2019-08-13 05:00:00 16.1 5 Oeste 13 Oeste 0 -- -- 78
2019-08-13 04:00:00 16.8 7 Oeste 15 Oeste 0 -- -- 75
2019-08-13 03:00:00 17.3 8 Oeste 17 Oeste 0 -- -- 73
2019-08-13 02:00:00 16.9 10 Sudoeste 17 Oeste 0 -- -- 74
2019-08-13 01:00:00 17.4 10 Oeste 17 Oeste 0 -- -- 73
2019-08-13 00:00:00 17.9 7 Noroeste 17 Noroeste 0 -- -- 70
2019-08-12 23:00:00 18 11 Noroeste 21 Noroeste 0 -- -- 66
2019-08-12 22:00:00 18.1 15 Noroeste 26 Noroeste 0 -- -- 68
2019-08-12 21:00:00 18.5 23 Noroeste 37 Noroeste 0 -- -- 64
2019-08-12 20:00:00 19.5 30 Noroeste 39 Noroeste 0 -- -- 66
2019-08-12 19:00:00 19.4 28 Noroeste 44 Oeste 0 -- -- 69
2019-08-12 18:00:00 19.6 35 Noroeste 45 Oeste 0 -- -- 63
2019-08-12 17:00:00 17.5 27 Oeste 51 Oeste 0 -- -- 83
2019-08-12 16:00:00 18.2 32 Oeste 66 Oeste 0 -- -- 75
2019-08-12 15:00:00 18.8 43 Oeste 68 Oeste 0 -- -- 73
2019-08-12 14:00:00 18.7 47 Oeste 71 Oeste 0 -- -- 76
2019-08-12 13:00:00 18.2 53 Oeste 75 Oeste 0 -- -- 79
2019-08-12 12:00:00 18.3 36 Oeste 54 Oeste 0 -- -- 77
2019-08-12 11:00:00 17 28 Oeste 60 Oeste 1.2 -- -- 85
2019-08-12 10:00:00 17.4 30 Oeste 59 Oeste 0 -- -- 81
2019-08-12 09:00:00 17.4 32 Oeste 54 Oeste 0 -- -- 81
2019-08-12 08:00:00 16.9 28 Oeste 49 Oeste 0 -- -- 81
2019-08-12 07:00:00 16.8 37 Oeste 60 Oeste 0 -- -- 85
2019-08-12 06:00:00 16.8 49 Oeste 69 Oeste 0 -- -- 80
2019-08-12 05:00:00 17.3 30 Oeste 45 Oeste 0 -- -- 76
2019-08-12 04:00:00 17.3 27 Oeste 42 Oeste 0 -- -- 77
2019-08-12 03:00:00 17.2 27 Oeste 50 Oeste 0 -- -- 80
2019-08-12 02:00:00 17.3 28 Oeste 46 Oeste 0 -- -- 79
2019-08-12 01:00:00 17.5 31 Oeste 48 Oeste 0 -- -- 82
2019-08-12 00:00:00 17.9 39 Oeste 50 Oeste 0 -- -- 83
2019-08-11 23:00:00 18.4 31 Oeste 42 Oeste 0 -- -- 78
2019-08-11 22:00:00 18.3 34 Oeste 41 Oeste 0 -- -- 82
2019-08-11 21:00:00 18.3 18 Noroeste 24 Oeste 0 -- -- 78
2019-08-11 20:00:00 18.4 19 Oeste 25 Oeste 0 -- -- 83
2019-08-11 19:00:00 19.2 14 Oeste 21 Noroeste 0 -- -- 82
2019-08-11 18:00:00 19.1 17 Noroeste 32 Noroeste 0 -- -- 83
2019-08-11 17:00:00 19.9 21 Noroeste 28 Noroeste 0 -- -- 80
2019-08-11 16:00:00 21.2 7 Noroeste 11 Noroeste 0 -- -- 74
2019-08-11 15:00:00 20.9 5 Norte 12 Nordeste 0 -- -- 75
2019-08-11 14:00:00 20.7 10 Este 14 Este 0 -- -- 73
2019-08-11 13:00:00 20.6 9 Este 16 Este 0 -- -- 73
2019-08-11 12:00:00 19.7 4 Nordeste 11 Nordeste 0 -- -- 76
2019-08-11 11:00:00 18.5 4 Nordeste 10 Este 0 -- -- 85
2019-08-11 10:00:00 17.3 7 Sudeste 18 Este 0 -- -- 93
2019-08-11 09:00:00 16.7 0 Calma 9 Oeste 0 -- -- 93
2019-08-11 08:00:00 16.1 6 Noroeste 17 Noroeste 1.8 -- -- 91
2019-08-11 07:00:00 16.4 12 Noroeste 40 Oeste 4.8 -- -- 93
2019-08-11 06:00:00 17.4 30 Noroeste 38 Oeste 0.8 -- -- 89
2019-08-11 05:00:00 18.6 24 Noroeste 33 Noroeste 0.2 -- -- 91
2019-08-11 04:00:00 19 2 Noroeste 10 Oeste 0 -- -- 82
2019-08-11 03:00:00 18.7 6 Sudoeste 8 Oeste 0 -- -- 88
2019-08-11 02:00:00 18.6 0 Calma 6 Oeste 0 -- -- 88
2019-08-11 01:00:00 18.9 5 Oeste 6 Sudoeste 0 -- -- 85
2019-08-11 00:00:00 18.9 0 Calma 3 Oeste -- -- -- 84
2019-08-10 23:00:00 19 2 Oeste 6 Nordeste 0 -- -- 83
2019-08-10 22:00:00 19.3 3 Nordeste 9 Este 0 -- -- 82
2019-08-10 21:00:00 19.3 4 Nordeste 13 Nordeste 0 -- -- 80
2019-08-10 20:00:00 18.5 7 Este 16 Este 0.8 -- -- 86
2019-08-10 19:00:00 21 5 Este 13 Este 0 -- -- 79
2019-08-10 18:00:00 21.8 8 Este 13 Este 0 -- -- 75
2019-08-10 17:00:00 23.5 6 Noroeste 14 Noroeste 0 -- -- 64
2019-08-10 16:00:00 23.3 13 Noroeste 18 Oeste 0 -- -- 64
2019-08-10 15:00:00 21.9 15 Oeste 21 Oeste 0 -- -- 69
2019-08-10 14:00:00 22.2 14 Noroeste 18 Noroeste 0 -- -- 69
2019-08-10 13:00:00 21.8 16 Noroeste 20 Oeste 0 -- -- 71
2019-08-10 12:00:00 21.5 6 Oeste 21 Oeste 0 -- -- 78
2019-08-10 11:00:00 19.7 12 Oeste 20 Oeste 0 -- -- 82
2019-08-10 10:00:00 19 10 Oeste 25 Oeste 0.4 -- -- 91
2019-08-10 09:00:00 19.8 0 Calma 8 Noroeste 0 -- -- 82
2019-08-10 08:00:00 19.3 5 Sudoeste 17 Sudoeste 0 -- -- 84
2019-08-10 07:00:00 19.2 12 Oeste 35 Oeste 0 -- -- 86
2019-08-10 06:00:00 19.8 17 Oeste 23 Oeste 0 -- -- 87
2019-08-10 05:00:00 20 6 Oeste 11 Oeste 0 -- -- 87
2019-08-10 04:00:00 20.4 3 Noroeste 10 Noroeste 0 -- -- 85
2019-08-10 03:00:00 20.8 0 Calma 16 Sudeste 0 -- -- 81
2019-08-10 02:00:00 21.5 10 Sudeste 18 Sudeste 0 -- -- 74
2019-08-10 01:00:00 21.3 9 Sudeste 15 Sudeste 0 -- -- 76
2019-08-10 00:00:00 21.2 8 Sudeste 17 Sudeste 0 -- -- 77
2019-08-09 23:00:00 20.8 8 Sudeste 19 Sudeste 0 -- -- 81
2019-08-09 22:00:00 21.1 11 Sudeste 20 Sudeste 0 -- -- 84
2019-08-09 21:00:00 21.4 12 Este 22 Este 0 -- -- 83
2019-08-09 20:00:00 21.8 21 Este 27 Este 0 -- -- 82
2019-08-09 19:00:00 21.8 23 Este 40 Este 0 -- -- 85
2019-08-09 18:00:00 22.7 33 Este 40 Este 0 -- -- 81
2019-08-09 17:00:00 21.9 29 Este 43 Este 0 -- -- 87
2019-08-09 16:00:00 22.1 24 Este 39 Este 0 -- -- 84
2019-08-09 15:00:00 22.6 26 Este 37 Este 0 -- -- 83
2019-08-09 14:00:00 23.3 22 Sudeste 33 Este 0 -- -- 76
2019-08-09 13:00:00 22 21 Este 25 Este 0 -- -- 85
2019-08-09 12:00:00 22.7 9 Nordeste 12 Noroeste 0 -- -- 81
2019-08-09 11:00:00 21.7 7 Oeste 27 Oeste 0 -- -- 90
2019-08-09 10:00:00 21.7 24 Oeste 33 Oeste 0 -- -- 93
2019-08-09 09:00:00 22.8 21 Oeste 50 Sudoeste 0 -- -- 88
2019-08-09 08:00:00 28.1 13 Sudoeste 37 Sudoeste 0 -- -- 51
2019-08-09 07:00:00 28.1 16 Sur 35 Sudoeste 0 -- -- 49
2019-08-09 06:00:00 28 11 Sudoeste 41 Oeste 0 -- -- 49
2019-08-09 05:00:00 28.6 17 Sudoeste 36 Sudoeste 0 -- -- 47
2019-08-09 04:00:00 28.3 10 Oeste 34 Sudoeste 0 -- -- 51
2019-08-09 03:00:00 29.5 15 Sudoeste 42 Sudoeste 0 -- -- 47
2019-08-09 02:00:00 29.9 11 Sudoeste 31 Sur 0 -- -- 45
2019-08-09 01:00:00 30.3 10 Sudoeste 26 Sur 0 -- -- 43
2019-08-09 00:00:00 29.9 12 Sur 21 Sudoeste 0 -- -- 48
2019-08-08 23:00:00 27.5 9 Sudoeste 24 Sudeste 0 -- -- 58
2019-08-08 22:00:00 26.8 18 Sudeste 27 Sudeste 0 -- -- 58
2019-08-08 21:00:00 25.8 18 Sudeste 33 Este 0 -- -- 63
2019-08-08 20:00:00 26.6 20 Sudeste 31 Sudeste 0 -- -- 62
2019-08-08 19:00:00 27.3 20 Sudeste 29 Sudeste 0 -- -- 64
2019-08-08 18:00:00 28.4 17 Sudeste 27 Este 0 -- -- 59
2019-08-08 17:00:00 29.5 11 Este 22 Sur 0 -- -- 53
2019-08-08 16:00:00 29.1 12 Sudeste 23 Sudeste 0 -- -- 59
2019-08-08 15:00:00 29.2 4 Nordeste 13 Noroeste 0 -- -- 57
2019-08-08 14:00:00 30.4 7 Oeste 25 Oeste 0 -- -- 52
2019-08-08 13:00:00 30.7 8 Sudoeste 21 Sur 0 -- -- 50
2019-08-08 12:00:00 29.8 5 Oeste 32 Sur 0 -- -- 53
2019-08-08 11:00:00 27.9 14 Sudoeste 38 Sudoeste 0 -- -- 58
2019-08-08 10:00:00 26.5 24 Sudoeste 45 Sudoeste 0 -- -- 60
2019-08-08 09:00:00 25.6 22 Sudoeste 43 Oeste 0 -- -- 59
2019-08-08 08:00:00 24.2 10 Sur 27 Oeste 0 -- -- 64
2019-08-08 07:00:00 22 3 Sudoeste 15 Sudoeste 0 -- -- 74
2019-08-08 06:00:00 21.6 9 Sudoeste 17 Sur 0 -- -- 76
2019-08-08 05:00:00 20.8 9 Sudeste 17 Sudeste 0 -- -- 97
2019-08-08 04:00:00 21 9 Sudeste 14 Este 0 -- -- 97
2019-08-08 03:00:00 21.2 9 Este 17 Este 0 -- -- 96
2019-08-08 02:00:00 21.3 13 Sudeste 26 Sudeste 0 -- -- 95
2019-08-08 01:00:00 21.4 18 Este 29 Este 0 -- -- 94
2019-08-08 00:00:00 21.6 18 Sudeste 30 Este 0 -- -- 94
2019-08-07 23:00:00 21.6 22 Este 32 Este 0 -- -- 95
2019-08-07 22:00:00 21.7 20 Este 26 Este 0 -- -- 94
2019-08-07 21:00:00 21.8 16 Sudeste 29 Este 0 -- -- 92
2019-08-07 20:00:00 22.4 20 Este 30 Este 0 -- -- 88
2019-08-07 19:00:00 23.2 22 Este 33 Este 0 -- -- 84
2019-08-07 18:00:00 23.5 22 Este 31 Este 0 -- -- 81
2019-08-07 17:00:00 23.4 21 Este 31 Este 0 -- -- 81
2019-08-07 16:00:00 23.9 19 Este 28 Este 0 -- -- 79
2019-08-07 15:00:00 24.3 17 Este 23 Este 0 -- -- 78
2019-08-07 14:00:00 23.9 17 Este 21 Este 0 -- -- 81
2019-08-07 13:00:00 23.7 13 Este 19 Este 0 -- -- 80
2019-08-07 12:00:00 23.3 6 Nordeste 10 Nordeste 0 -- -- 80
2019-08-07 11:00:00 22.6 5 Oeste 6 Oeste 0 -- -- 84
2019-08-07 10:00:00 22.5 3 Oeste 8 Oeste 0 -- -- 83
2019-08-07 09:00:00 21.9 3 Oeste 8 Este 0 -- -- 88
2019-08-07 08:00:00 19.8 2 Sudeste 5 Sudeste 0 -- -- 95
2019-08-07 07:00:00 19.6 0 Calma 8 Oeste 0 -- -- 93
2019-08-07 06:00:00 20 7 Oeste 11 Oeste 0 -- -- 92
2019-08-07 05:00:00 19.8 5 Oeste 11 Sudoeste 0 -- -- 93
2019-08-07 04:00:00 19.5 3 Sur 8 Sudeste 0 -- -- 91
2019-08-07 03:00:00 19.8 4 Sudeste 13 Sur 0 -- -- 91
2019-08-07 02:00:00 20.1 7 Sudeste 17 Sudeste 0 -- -- 91
2019-08-07 01:00:00 20.3 4 Oeste 18 Sudoeste 0 -- -- 91
2019-08-07 00:00:00 20.5 8 Sudoeste 26 Oeste 0 -- -- 91
2019-08-06 23:00:00 20.7 4 Sudoeste 18 Oeste 0 -- -- 91
2019-08-06 22:00:00 20.9 12 Oeste 23 Oeste 0 -- -- 90
2019-08-06 21:00:00 21 12 Oeste 24 Oeste 0 -- -- 87
2019-08-06 20:00:00 21.4 19 Oeste 23 Oeste 0 -- -- 84
2019-08-06 19:00:00 22.1 4 Noroeste 10 Este 0 -- -- 82
2019-08-06 18:00:00 22.3 10 Este 18 Este 0 -- -- 82
2019-08-06 17:00:00 23.1 14 Este 20 Este 0 -- -- 81
2019-08-06 16:00:00 22.9 15 Este 21 Este 0 -- -- 80
2019-08-06 15:00:00 23.5 15 Este 20 Este 0 -- -- 77
2019-08-06 14:00:00 22.3 13 Este 20 Este 0 -- -- 82
2019-08-06 13:00:00 23.1 17 Este 20 Este 0 -- -- 79
2019-08-06 12:00:00 23.2 12 Este 18 Este 0 -- -- 82
2019-08-06 11:00:00 21.7 14 Este 20 Este 0 -- -- 88
2019-08-06 10:00:00 21.7 8 Este 18 Este 0 -- -- 85
2019-08-06 09:00:00 21.5 11 Este 24 Sudeste 0 -- -- 85
2019-08-06 08:00:00 20.3 9 Sudeste 16 Sudeste 0 -- -- 90
2019-08-06 07:00:00 19.2 6 Sudeste 13 Este 0 -- -- 92
2019-08-06 06:00:00 19.1 5 Sudeste 15 Sudeste 0 -- -- 91
2019-08-06 05:00:00 18.7 8 Sudeste 12 Este 0 -- -- 95
2019-08-06 04:00:00 18.6 4 Sudoeste 8 Sudoeste 0 -- -- 93
2019-08-06 03:00:00 19.1 6 Sudeste 12 Sudeste 0 -- -- 92
2019-08-06 02:00:00 19.1 5 Sudeste 9 Este 0 -- -- 92
2019-08-06 01:00:00 19.4 5 Sudeste 9 Sudeste 0 -- -- 91
2019-08-06 00:00:00 19.8 6 Sudeste 11 Sudeste 0 -- -- 90
2019-08-05 23:00:00 20 8 Este 14 Este 0 -- -- 89
2019-08-05 22:00:00 20.1 11 Este 18 Este 0 -- -- 89
2019-08-05 21:00:00 21 14 Este 20 Este 0 -- -- 85
2019-08-05 20:00:00 21.7 16 Este 19 Este 0 -- -- 82
2019-08-05 19:00:00 22.2 15 Este 22 Este 0 -- -- 81
2019-08-05 18:00:00 22.6 16 Este 21 Este 0 -- -- 79
2019-08-05 17:00:00 22.7 17 Este 21 Este 0 -- -- 80
2019-08-05 16:00:00 22.5 14 Nordeste 19 Este 0 -- -- 80
2019-08-05 15:00:00 23.1 13 Nordeste 20 Este 0 -- -- 80
2019-08-05 14:00:00 23 17 Este 21 Este 0 -- -- 79
2019-08-05 13:00:00 23.1 13 Este 17 Este 0 -- -- 79
2019-08-05 12:00:00 22.7 12 Este 15 Este 0 -- -- 81
2019-08-05 11:00:00 22.5 10 Este 13 Nordeste 0 -- -- 81
2019-08-05 10:00:00 21.6 6 Nordeste 9 Este 0 -- -- 83
2019-08-05 09:00:00 21.5 5 Nordeste 8 Este 0 -- -- 84
2019-08-05 08:00:00 19.5 3 Este -- -- 0 -- -- 94
2019-08-05 07:00:00 17.6 4 Sudeste 5 Sudeste 0 -- -- 95
2019-08-05 06:00:00 18 0 Calma 8 Oeste 0 -- -- 94
2019-08-05 05:00:00 18.2 3 Oeste 6 Oeste 0 -- -- 94
2019-08-05 04:00:00 17.8 3 Sudeste 6 Sudeste 0 -- -- 94
2019-08-05 03:00:00 18.1 5 Sur 13 Oeste 0 -- -- 93
2019-08-05 02:00:00 19.2 11 Oeste 17 Oeste 0 -- -- 91
2019-08-05 01:00:00 19.7 12 Oeste 19 Sudoeste 0 -- -- 90
2019-08-05 00:00:00 19.9 13 Oeste 18 Oeste 0 -- -- 90
2019-08-04 23:00:00 20.2 12 Oeste 21 Oeste 0 -- -- 91
2019-08-04 22:00:00 20.3 13 Oeste 21 Oeste 0 -- -- 89
2019-08-04 21:00:00 20.6 18 Oeste 22 Oeste 0 -- -- 89
2019-08-04 20:00:00 20.9 12 Oeste 15 Oeste 0 -- -- 87
2019-08-04 19:00:00 21.4 9 Noroeste 11 Noroeste 0 -- -- 83
2019-08-04 18:00:00 21.8 9 Noroeste 17 Oeste 0 -- -- 81
2019-08-04 17:00:00 21.9 10 Noroeste 14 Sudoeste 0 -- -- 83
2019-08-04 16:00:00 22 9 Oeste 17 Sudoeste 0 -- -- 84
2019-08-04 15:00:00 20.9 13 Oeste 17 Oeste 0 -- -- 86
2019-08-04 14:00:00 21.1 9 Oeste 14 Oeste 0 -- -- 83
2019-08-04 13:00:00 20.4 10 Oeste 15 Oeste 0 -- -- 89
2019-08-04 12:00:00 19.9 10 Oeste 21 Oeste 0 -- -- 96
2019-08-04 11:00:00 19.4 14 Oeste 18 Oeste 0 -- -- 97
2019-08-04 10:00:00 19.5 15 Oeste 19 Oeste 0 -- -- 94
2019-08-04 09:00:00 19.5 12 Oeste 19 Oeste 0 -- -- 93
2019-08-04 08:00:00 19.6 12 Sudoeste 20 Oeste 0 -- -- 94
2019-08-04 07:00:00 19.9 13 Oeste 23 Sudoeste 0 -- -- 91
2019-08-04 06:00:00 19.8 18 Oeste 26 Sudoeste 0 -- -- 92
2019-08-04 05:00:00 19.7 18 Oeste 25 Oeste 0 -- -- 91
2019-08-04 04:00:00 19.9 15 Oeste 30 Sudoeste 0 -- -- 89
2019-08-04 03:00:00 20 21 Oeste 31 Oeste 0 -- -- 93
2019-08-04 02:00:00 20.2 22 Oeste 31 Oeste 0 -- -- 94
2019-08-04 01:00:00 20.1 20 Oeste 31 Oeste 0 -- -- 94
2019-08-04 00:00:00 20.4 21 Oeste 32 Oeste 0 -- -- 94
2019-08-03 23:00:00 20.6 27 Oeste 35 Oeste 0 -- -- 93
2019-08-03 22:00:00 20.7 28 Oeste 36 Oeste 0 -- -- 92
2019-08-03 21:00:00 21.3 24 Oeste 31 Oeste 0 -- -- 89
2019-08-03 20:00:00 22.3 23 Oeste 27 Oeste 0 -- -- 85
2019-08-03 19:00:00 23.2 6 Este 16 Este 0 -- -- 81
2019-08-03 18:00:00 22.9 13 Este 15 Este 0 -- -- 81
2019-08-03 17:00:00 23 12 Nordeste 20 Este 0 -- -- 80
2019-08-03 16:00:00 22.8 17 Este 24 Este 0 -- -- 79
2019-08-03 15:00:00 23 20 Este 27 Este 0 -- -- 80
2019-08-03 14:00:00 23 21 Este 25 Este 0 -- -- 79
2019-08-03 13:00:00 22.7 19 Este 29 Este 0 -- -- 81
2019-08-03 12:00:00 22.2 23 Este 27 Este 0 -- -- 82
2019-08-03 11:00:00 21.9 16 Este 24 Este 0 -- -- 83
2019-08-03 10:00:00 21.7 14 Este 22 Este 0 -- -- 84
2019-08-03 09:00:00 21 14 Este 22 Sudeste 0 -- -- 87
2019-08-03 08:00:00 19.4 11 Este 16 Este 0 -- -- 95
2019-08-03 07:00:00 18.7 8 Este 15 Sudeste 0 -- -- 95
2019-08-03 06:00:00 18.7 10 Este 16 Este 0 -- -- 94
2019-08-03 05:00:00 18.8 8 Sudeste 14 Este 0 -- -- 93
2019-08-03 04:00:00 19.1 11 Este 15 Este 0 -- -- 92
2019-08-03 03:00:00 19.7 11 Este 24 Este 0 -- -- 90
2019-08-03 02:00:00 19.9 14 Este 19 Este 0 -- -- 90
2019-08-03 01:00:00 19.9 11 Este 17 Sudeste 0 -- -- 88
2019-08-03 00:00:00 19.7 9 Este 22 Este 0 -- -- 88
2019-08-02 23:00:00 19.7 17 Este 24 Este 0 -- -- 87
2019-08-02 22:00:00 19.8 18 Este 26 Este 0 -- -- 87
2019-08-02 21:00:00 20.5 20 Este 25 Este 0 -- -- 83
2019-08-02 20:00:00 21.2 15 Este 22 Este 0 -- -- 78
2019-08-02 19:00:00 21.6 17 Este 22 Este 0 -- -- 77
2019-08-02 18:00:00 21.9 18 Este 21 Este 0 -- -- 75
2019-08-02 17:00:00 22.2 18 Este 23 Este 0 -- -- 73
2019-08-02 16:00:00 22.6 17 Este 22 Este 0 -- -- 74
2019-08-02 15:00:00 22.5 15 Este 21 Este 0 -- -- 74
2019-08-02 14:00:00 21.9 17 Este 21 Este 0 -- -- 80
2019-08-02 13:00:00 21.4 14 Este 23 Este 0 -- -- 82
2019-08-02 12:00:00 21.1 7 Este 10 Nordeste 0 -- -- 82
2019-08-02 11:00:00 21.1 6 Este 9 Este 0 -- -- 82
2019-08-02 10:00:00 21 4 Nordeste 6 Nordeste 0 -- -- 82
2019-08-02 09:00:00 20 0 Calma 6 Oeste 0 -- -- 87
2019-08-02 08:00:00 19.2 6 Oeste 10 Sudoeste 0 -- -- 90
2019-08-02 07:00:00 18.7 9 Sudoeste 13 Sudoeste 0 -- -- 92
2019-08-02 06:00:00 18.6 7 Sudoeste 14 Sudoeste 0 -- -- 91
2019-08-02 05:00:00 18.7 11 Sudoeste 18 Sudoeste 0 -- -- 91
2019-08-02 04:00:00 18.7 11 Oeste 17 Oeste 0 -- -- 92
2019-08-02 03:00:00 18.7 11 Oeste 15 Sudoeste 0 -- -- 92
2019-08-02 02:00:00 18.6 12 Oeste 16 Oeste 0 -- -- 91
2019-08-02 01:00:00 18.7 11 Oeste 15 Sudoeste 0 -- -- 91
2019-08-02 00:00:00 18.6 12 Oeste 17 Sudoeste 0 -- -- 92
2019-08-01 23:00:00 18.5 12 Oeste 17 Oeste 0 -- -- 93
2019-08-01 22:00:00 18.5 12 Oeste 16 Oeste 0 -- -- 92
2019-08-01 21:00:00 18.5 6 Sudoeste 22 Oeste 0 -- -- 92
2019-08-01 20:00:00 19.1 9 Oeste 12 Oeste 0 -- -- 89
2019-08-01 19:00:00 19.3 7 Noroeste 12 Noroeste 0 -- -- 86
2019-08-01 18:00:00 19.2 7 Noroeste 14 Noroeste 0 -- -- 87
2019-08-01 17:00:00 19.4 6 Norte 24 Oeste 0 -- -- 88
2019-08-01 16:00:00 20.2 23 Oeste 38 Oeste 0 -- -- 84
2019-08-01 15:00:00 20.2 29 Oeste 40 Oeste 0 -- -- 84
2019-08-01 14:00:00 20.5 27 Oeste 34 Oeste 0 -- -- 82
2019-08-01 13:00:00 20.7 21 Oeste 27 Oeste 0 -- -- 82
2019-08-01 12:00:00 20 17 Oeste 23 Oeste 0 -- -- 84
2019-08-01 11:00:00 20.3 7 Oeste 16 Oeste 0 -- -- 83
2019-08-01 10:00:00 18.7 13 Este 37 Este 0 -- -- 90
2019-08-01 09:00:00 18.2 31 Este 40 Este 0 -- -- 90
2019-08-01 08:00:00 17.8 27 Este 45 Este 0 -- -- 89
2019-08-01 07:00:00 17.7 9 Sudeste 29 Este 0.2 -- -- 91
2019-08-01 06:00:00 17.8 8 Este 52 Este 4.2 -- -- 92
2019-08-01 05:00:00 19.6 10 Este 26 Este 0 -- -- 87
2019-08-01 04:00:00 19.5 21 Este 33 Este 0 -- -- 88
2019-08-01 03:00:00 19.5 21 Nordeste 28 Este 0 -- -- 85
2019-08-01 02:00:00 19.7 22 Nordeste 28 Nordeste 0 -- -- 81
2019-08-01 01:00:00 19.6 18 Nordeste 29 Nordeste 0 -- -- 80
2019-08-01 00:00:00 19.7 21 Nordeste 27 Nordeste 0 -- -- 79
2019-07-31 23:00:00 19.6 20 Este 29 Este 0 -- -- 78
2019-07-31 22:00:00 19.5 22 Este 28 Este 0 -- -- 77
2019-07-31 21:00:00 19.4 22 Este 28 Este 0 -- -- 74
2019-07-31 20:00:00 19.9 18 Este 27 Este 0 -- -- 75
2019-07-31 19:00:00 20.5 18 Nordeste 26 Este 0 -- -- 70
2019-07-31 18:00:00 20.7 19 Este 25 Este 0 -- -- 69
2019-07-31 17:00:00 20.3 19 Este 30 Este 0 -- -- 66
2019-07-31 16:00:00 20.6 23 Este 29 Este 0 -- -- 66
2019-07-31 15:00:00 20.9 22 Este 28 Este 0 -- -- 69
2019-07-31 14:00:00 21.1 20 Este 30 Este 0 -- -- 67
2019-07-31 13:00:00 21.5 22 Este 28 Este 0 -- -- 64
2019-07-31 12:00:00 20.5 12 Este 18 Este 0 -- -- 70
2019-07-31 11:00:00 20.7 11 Este 17 Este 0 -- -- 70
2019-07-31 10:00:00 20 9 Este 16 Este 0 -- -- 67
2019-07-31 09:00:00 19.7 7 Sudeste 11 Sudeste 0 -- -- 70
2019-07-31 08:00:00 17.5 5 Sudeste 8 Sudeste 0 -- -- 75
2019-07-31 07:00:00 14.8 2 Sudeste 4 Sudoeste 0 -- -- 82
2019-07-31 06:00:00 14.9 2 Sur 6 Sur 0 -- -- 84
2019-07-31 05:00:00 14.9 4 Sur 5 Sudeste 0 -- -- 84
2019-07-31 04:00:00 15.2 4 Sudoeste 5 Sudoeste 0 -- -- 84
2019-07-31 03:00:00 15.5 4 Sudoeste 8 Oeste 0 -- -- 84
2019-07-31 02:00:00 16.5 4 Oeste 7 Oeste 0 -- -- 80
2019-07-31 01:00:00 16.4 5 Oeste 9 Oeste 0 -- -- 80
2019-07-31 00:00:00 16.6 6 Oeste 13 Oeste 0 -- -- 78
2019-07-30 23:00:00 17 3 Noroeste 12 Norte 0 -- -- 72
2019-07-30 22:00:00 18.2 9 Noroeste 20 Noroeste 0 -- -- 67
2019-07-30 21:00:00 19.1 15 Noroeste 30 Noroeste 0 -- -- 71
2019-07-30 20:00:00 19.4 24 Noroeste 35 Oeste 0 -- -- 72
2019-07-30 19:00:00 20 26 Noroeste 46 Noroeste 0 -- -- 71
2019-07-30 18:00:00 19.6 36 Oeste 52 Oeste 0 -- -- 71
2019-07-30 17:00:00 20.1 36 Oeste 50 Noroeste 0 -- -- 72
2019-07-30 16:00:00 19.7 45 Oeste 54 Oeste 0 -- -- 72
2019-07-30 15:00:00 19.9 41 Oeste 63 Oeste 0 -- -- 67
2019-07-30 14:00:00 19.3 51 Oeste 65 Oeste 0 -- -- 72
2019-07-30 13:00:00 19.3 57 Oeste 66 Oeste 0 -- -- 65
2019-07-30 12:00:00 19.4 39 Oeste 60 Oeste 0 -- -- 68
2019-07-30 11:00:00 18.9 43 Oeste 59 Oeste 0 -- -- 70
2019-07-30 10:00:00 17.8 36 Oeste 72 Oeste 0 -- -- 75
2019-07-30 09:00:00 17.5 41 Oeste 60 Oeste 0.8 -- -- 78
2019-07-30 08:00:00 18.4 44 Oeste 68 Oeste 0 -- -- 72
2019-07-30 07:00:00 18.5 54 Oeste 67 Oeste 0 -- -- 75
2019-07-30 06:00:00 18.8 59 Oeste 72 Oeste 0 -- -- 73
2019-07-30 05:00:00 19 56 Oeste 70 Oeste 0 -- -- 72
2019-07-30 04:00:00 18.9 49 Oeste 63 Oeste 0 -- -- 73
2019-07-30 03:00:00 18.8 46 Oeste 62 Oeste 0 -- -- 73
2019-07-30 02:00:00 17.2 20 Oeste 42 Sudoeste 1.2 -- -- 90
2019-07-30 01:00:00 17.6 19 Oeste 56 Oeste 0 -- -- 86
2019-07-30 00:00:00 18.9 41 Oeste 55 Oeste 0 -- -- 77
2019-07-29 23:00:00 19.9 46 Oeste 54 Oeste 0 -- -- 72
2019-07-29 22:00:00 19.8 33 Oeste 57 Oeste 0 -- -- 75
2019-07-29 21:00:00 20.3 33 Oeste 41 Oeste 0 -- -- 77
2019-07-29 20:00:00 20.6 30 Noroeste 37 Oeste 0 -- -- 72
2019-07-29 19:00:00 20.8 23 Noroeste 31 Noroeste 0 -- -- 69
2019-07-29 18:00:00 20.8 25 Noroeste 36 Noroeste 0 -- -- 67
2019-07-29 17:00:00 21 26 Noroeste 39 Oeste 0 -- -- 68
2019-07-29 16:00:00 20.7 29 Noroeste 35 Oeste 0 -- -- 76
2019-07-29 15:00:00 21 30 Oeste 43 Noroeste 0 -- -- 75
2019-07-29 14:00:00 21.3 36 Noroeste 49 Oeste 0 -- -- 74
2019-07-29 13:00:00 21.8 37 Oeste 51 Oeste 0 -- -- 82
2019-07-29 12:00:00 21.3 43 Oeste 64 Oeste 0 -- -- 81
2019-07-29 11:00:00 21 50 Oeste 62 Oeste 0 -- -- 80
2019-07-29 10:00:00 21 30 Oeste 38 Oeste 0 -- -- 76
2019-07-29 09:00:00 21 13 Oeste 28 Oeste 0 -- -- 75
2019-07-29 08:00:00 19.9 14 Oeste 22 Oeste 0 -- -- 70
2019-07-29 07:00:00 18.6 6 Sudeste 16 Sudeste 0 -- -- 69
2019-07-29 06:00:00 18.7 13 Sudeste 22 Sudeste 0 -- -- 73
2019-07-29 05:00:00 18.7 14 Sudeste 23 Sudeste 0 -- -- 79
2019-07-29 04:00:00 18.7 14 Sudeste 25 Sudeste 0 -- -- 80
2019-07-29 03:00:00 18.8 16 Sudeste 25 Sudeste 0 -- -- 76
2019-07-29 02:00:00 19 15 Sudeste 27 Sudeste 0 -- -- 76
2019-07-29 01:00:00 18.9 15 Sudeste 27 Sudeste 0 -- -- 79
2019-07-29 00:00:00 19 17 Sudeste 27 Sudeste 0 -- -- 78
2019-07-28 23:00:00 18.8 16 Sudeste 28 Sudeste 0 -- -- 78
2019-07-28 22:00:00 19 16 Sudeste 35 Este 0 -- -- 80
2019-07-28 21:00:00 19.9 23 Este 35 Este 0 -- -- 76
2019-07-28 20:00:00 20.2 23 Este 33 Este 0 -- -- 74
2019-07-28 19:00:00 20.5 22 Este 30 Este 0 -- -- 72
2019-07-28 18:00:00 20.8 21 Este 27 Este 0 -- -- 72
2019-07-28 17:00:00 21.1 19 Este 24 Este 0 -- -- 72
2019-07-28 16:00:00 21.3 15 Este 20 Nordeste 0 -- -- 73
2019-07-28 15:00:00 21.1 9 Nordeste 12 Nordeste 0 -- -- 73
2019-07-28 14:00:00 21.2 5 Noroeste 10 Noroeste 0 -- -- 73
2019-07-28 13:00:00 20.5 9 Oeste 14 Oeste 0 -- -- 74
2019-07-28 12:00:00 19.6 9 Sudoeste 15 Oeste 0 -- -- 76
2019-07-28 11:00:00 16.6 6 Sudeste 19 Noroeste 4.2 -- -- 91
2019-07-28 10:00:00 16.2 8 Noroeste 30 Sudoeste 3.4 -- -- 94
2019-07-28 09:00:00 17.4 18 Oeste 35 Oeste 0 -- -- 87
2019-07-28 08:00:00 17 21 Oeste 32 Oeste 0.2 -- -- 91
2019-07-28 07:00:00 16.6 18 Oeste 36 Sudoeste 0 -- -- 93
2019-07-28 06:00:00 16.5 25 Oeste 37 Oeste 0 -- -- 94
2019-07-28 05:00:00 16.8 22 Sudoeste 44 Oeste 4.6 -- -- 94
2019-07-28 04:00:00 17.2 23 Oeste 41 Oeste 0 -- -- 91
2019-07-28 03:00:00 17.8 29 Oeste 46 Oeste 0 -- -- 86
2019-07-28 02:00:00 16.9 23 Oeste 46 Oeste 0 -- -- 93
2019-07-28 01:00:00 17 25 Oeste 57 Oeste 0.2 -- -- 95
2019-07-28 00:00:00 16.7 19 Oeste 41 Oeste 1 -- -- 96
2019-07-27 23:00:00 16.6 19 Oeste 40 Oeste 1.2 -- -- 93
2019-07-26 12:00:00 18.3 33 Oeste 45 Oeste 0 -- -- 99
2019-07-26 11:00:00 17.5 40 Oeste 49 Noroeste 1.2 -- -- 99
2019-07-26 10:00:00 18.9 29 Oeste 46 Oeste 1.2 -- -- 97
2019-07-26 09:00:00 18.2 17 Oeste 28 Oeste 1.4 -- -- 96
2019-07-26 08:00:00 17.9 28 Oeste 42 Oeste 2 -- -- 98
2019-07-26 07:00:00 19 11 Noroeste 25 Norte 1.8 -- -- 99
2019-07-26 06:00:00 20 7 Este 27 Este 4.6 -- -- 98
2019-07-26 05:00:00 20.4 9 Este 21 Nordeste 0.4 -- -- 98
2019-07-26 04:00:00 20.6 8 Nordeste 15 Nordeste 0.8 -- -- 96
2019-07-26 03:00:00 21.3 4 Norte 19 Norte 0 -- -- 92
2019-07-26 02:00:00 21.3 11 Noroeste 22 Noroeste 0 -- -- 95
2019-07-26 01:00:00 21.3 7 Oeste 12 Oeste 0.2 -- -- 92
2019-07-26 00:00:00 21.1 7 Oeste 23 Oeste 0 -- -- 92
2019-07-25 23:00:00 20.8 19 Oeste 35 Oeste 0.8 -- -- 92
2019-07-25 22:00:00 21.4 27 Oeste 39 Noroeste 0.8 -- -- 95
2019-07-25 21:00:00 21.5 30 Noroeste 37 Oeste 0.8 -- -- 96
2019-07-25 20:00:00 22.1 18 Oeste 28 Noroeste 0 -- -- 91
2019-07-25 19:00:00 22.5 11 Oeste 22 Noroeste 0 -- -- 89
2019-07-25 18:00:00 22.3 21 Noroeste 27 Noroeste 0 -- -- 89
2019-07-25 17:00:00 22.7 19 Noroeste 26 Noroeste 0 -- -- 89
2019-07-25 16:00:00 23.4 17 Noroeste 21 Noroeste 0 -- -- 86
2019-07-25 15:00:00 24.5 6 Noroeste 15 Noroeste 0 -- -- 84
2019-07-25 14:00:00 24.7 6 Noroeste 10 Noroeste 0 -- -- 82
2019-07-25 13:00:00 23.7 7 Noroeste 16 Oeste 0 -- -- 88
2019-07-25 12:00:00 23.4 7 Oeste 14 Oeste 0 -- -- 88
2019-07-25 11:00:00 23.6 10 Oeste 18 Oeste 0 -- -- 88
2019-07-25 10:00:00 23 13 Oeste 18 Oeste 0 -- -- 88
2019-07-25 09:00:00 22.7 4 Oeste 7 Oeste 0 -- -- 89
2019-07-25 08:00:00 22.3 5 Este 18 Sudoeste 0 -- -- 93
2019-07-25 07:00:00 21.3 14 Oeste 24 Oeste 0 -- -- 94
2019-07-25 06:00:00 21.4 18 Oeste 37 Oeste 0 -- -- 95
2019-07-25 05:00:00 21.4 28 Oeste 46 Oeste 0 -- -- 97
2019-07-25 04:00:00 21.3 36 Oeste 52 Oeste 0 -- -- 98
2019-07-25 03:00:00 21.7 40 Oeste 56 Oeste 0 -- -- 97
2019-07-25 02:00:00 21.8 41 Oeste 57 Oeste 0 -- -- 97
2019-07-25 01:00:00 22.2 39 Oeste 55 Oeste 0 -- -- 96
2019-07-25 00:00:00 23 30 Oeste 45 Oeste 0 -- -- 91
2019-07-24 23:00:00 26.5 14 Sudeste 29 Este 0 -- -- 63
2019-07-24 22:00:00 30 14 Sudeste 30 Sudeste 0 -- -- 51
2019-07-24 21:00:00 26.3 19 Sudeste 29 Sudeste 0 -- -- 72
2019-07-24 20:00:00 25.3 17 Sudeste 31 Este 0 -- -- 76
2019-07-24 19:00:00 24.1 20 Este 36 Sudeste 0.6 -- -- 91
2019-07-24 18:00:00 24.5 24 Este 38 Este 0 -- -- 87
2019-07-24 17:00:00 24.8 28 Este 41 Este 0 -- -- 85
2019-07-24 16:00:00 24.9 31 Este 41 Este 0 -- -- 83
2019-07-24 15:00:00 25.1 31 Este 41 Este 0 -- -- 82
2019-07-24 14:00:00 24.8 29 Este 42 Este 0 -- -- 82
2019-07-24 13:00:00 24.8 26 Este 35 Este 0 -- -- 83
2019-07-24 12:00:00 24.4 16 Este 19 Este 0 -- -- 85
2019-07-24 11:00:00 24 10 Nordeste 15 Este 0 -- -- 85
2019-07-24 10:00:00 23.9 7 Este 13 Este 0 -- -- 88
2019-07-24 09:00:00 22.1 5 Sudeste 11 Sudeste 0 -- -- 92
2019-07-24 08:00:00 21.6 5 Sudeste 9 Este 0 -- -- 96
2019-07-24 07:00:00 21.4 3 Este 15 Este 0 -- -- 95
2019-07-24 06:00:00 21.3 7 Este 28 Sudeste 0 -- -- 93
2019-07-24 05:00:00 21.2 14 Sudeste 28 Este 0 -- -- 95
2019-07-24 04:00:00 21.2 12 Sudeste 19 Este 0 -- -- 93
2019-07-24 03:00:00 21.4 7 Sudoeste 30 Oeste 0 -- -- 91
2019-07-24 02:00:00 21.3 19 Oeste 32 Oeste 0 -- -- 91
2019-07-24 01:00:00 21.1 6 Sur 40 Oeste 0 -- -- 93
2019-07-24 00:00:00 21.2 26 Oeste 58 Oeste 0 -- -- 95
2019-07-23 23:00:00 21.4 26 Oeste 55 Oeste 0 -- -- 95
2019-07-23 22:00:00 21.4 38 Oeste 79 Oeste 0 -- -- 94
2019-07-23 21:00:00 21.8 39 Oeste 67 Oeste 0.6 -- -- 96
2019-07-23 20:00:00 22.5 24 Oeste 58 Oeste 0.4 -- -- 93
2019-07-23 19:00:00 22.9 43 Oeste 72 Oeste 0 -- -- 93
2019-07-23 18:00:00 23.7 36 Oeste 58 Oeste 0 -- -- 89
2019-07-23 17:00:00 26.6 23 Oeste 40 Oeste 0 -- -- 74
2019-07-23 16:00:00 27.2 30 Oeste 46 Sudoeste 0 -- -- 69
2019-07-23 15:00:00 32 10 Sudeste 17 Sudeste 0 -- -- 41
2019-07-23 14:00:00 31.4 10 Este 33 Este 0 -- -- 43
2019-07-23 13:00:00 33.4 14 Este 24 Este 0 -- -- 36
2019-07-23 12:00:00 33 5 Nordeste 26 Nordeste 0 -- -- 35
2019-07-23 11:00:00 33 14 Oeste 59 Sudoeste 0 -- -- 33
2019-07-23 10:00:00 31.4 35 Sudoeste 65 Sur 0 -- -- 34
2019-07-23 09:00:00 27.1 9 Sudeste 15 Este 0 -- -- 59
2019-07-23 08:00:00 24.5 11 Sudeste 25 Sudeste 0 -- -- 68
2019-07-23 07:00:00 21.9 13 Sudeste 21 Sudeste 0 -- -- 88
2019-07-23 06:00:00 22.4 10 Sudeste 24 Sudeste 0 -- -- 86
2019-07-23 05:00:00 21.2 19 Sudeste 29 Sudeste 0 -- -- 92
2019-07-23 04:00:00 21.2 7 Sudeste 11 Sudeste 0 -- -- 91
2019-07-23 03:00:00 21 0 Calma 12 Sudoeste 0 -- -- 90
2019-07-23 02:00:00 21.8 7 Oeste 14 Oeste 0 -- -- 87
2019-07-23 01:00:00 22 6 Sudoeste 48 Sudoeste 0 -- -- 86
2019-07-23 00:00:00 21.9 33 Oeste 53 Oeste 0 -- -- 88
2019-07-22 23:00:00 21.6 19 Oeste 27 Sudoeste 0 -- -- 94
2019-07-22 22:00:00 22.6 13 Sudoeste 19 Oeste 0 -- -- 85
2019-07-22 21:00:00 23.8 10 Este 22 Sudeste 0 -- -- 79
2019-07-22 20:00:00 23.9 15 Sudeste 29 Este 0 -- -- 87
2019-07-22 19:00:00 24.1 22 Este 32 Este 0 -- -- 85
2019-07-22 18:00:00 24.3 24 Este 33 Este 0 -- -- 82
2019-07-22 17:00:00 24.6 23 Este 33 Este 0 -- -- 82
2019-07-22 16:00:00 24.6 27 Este 32 Este 0 -- -- 79
2019-07-22 15:00:00 24.8 22 Este 27 Este 0 -- -- 77
2019-07-22 14:00:00 24.7 18 Este 22 Este 0 -- -- 76
2019-07-22 13:00:00 24.6 15 Este 19 Este 0 -- -- 76
2019-07-22 12:00:00 24.6 13 Este 17 Este 0 -- -- 77
2019-07-22 11:00:00 23.9 13 Este 16 Este 0 -- -- 77
2019-07-22 10:00:00 23.1 9 Este 14 Este 0 -- -- 81
2019-07-22 09:00:00 22.2 10 Este 18 Este 0 -- -- 86
2019-07-22 08:00:00 21.3 11 Este 25 Este 0 -- -- 91
2019-07-22 07:00:00 20.8 17 Este 31 Este 0 -- -- 95
2019-07-22 06:00:00 21.3 24 Este 32 Este 0 -- -- 91
2019-07-22 05:00:00 21.4 16 Nordeste 21 Nordeste 0 -- -- 91
2019-07-22 04:00:00 21.5 11 Nordeste 15 Nordeste 0 -- -- 88
2019-07-22 03:00:00 21.2 3 Este 9 Este 0 -- -- 84
2019-07-22 02:00:00 21.2 5 Este 12 Este 0 -- -- 84
2019-07-22 01:00:00 21.2 7 Este 14 Este 0 -- -- 84
2019-07-22 00:00:00 21.2 11 Este 18 Nordeste 0 -- -- 83
2019-07-21 23:00:00 21.3 14 Nordeste 18 Nordeste 0 -- -- 84
2019-07-21 22:00:00 21.3 12 Nordeste 15 Nordeste 0 -- -- 81
2019-07-21 21:00:00 21.6 8 Nordeste 12 Nordeste 0 -- -- 82
2019-07-21 20:00:00 22 5 Nordeste 16 Nordeste 0 -- -- 81
2019-07-21 19:00:00 22.5 13 Norte 21 Nordeste 0 -- -- 80
2019-07-21 18:00:00 23.4 18 Nordeste 26 Este 0 -- -- 75
2019-07-21 17:00:00 23.8 21 Este 32 Este 0 -- -- 72
2019-07-21 16:00:00 23.6 25 Este 32 Este 0 -- -- 76
2019-07-21 15:00:00 23.2 25 Este 32 Este 0 -- -- 76
2019-07-21 14:00:00 22.6 25 Este 33 Este 0 -- -- 82
2019-07-21 13:00:00 21.2 23 Este 31 Este 0 -- -- 88
2019-07-21 12:00:00 20.5 11 Este 25 Nordeste 0 -- -- 95
2019-07-21 11:00:00 20.1 15 Este 28 Este 0.4 -- -- 98
2019-07-21 10:00:00 20.1 10 Este 20 Este 0.2 -- -- 96
2019-07-21 09:00:00 20.1 8 Este 16 Este 0.6 -- -- 95
2019-07-21 08:00:00 20.2 8 Sudeste 13 Sudeste 0.2 -- -- 93
2019-07-21 07:00:00 20.5 7 Sudeste 15 Este 0 -- -- 90
2019-07-21 06:00:00 20.2 5 Este 10 Nordeste 0 -- -- 92
2019-07-21 05:00:00 20.1 4 Este 8 Este 0 -- -- 92
2019-07-21 04:00:00 19.6 0 Calma 6 Oeste 0 -- -- 92
2019-07-21 03:00:00 19.9 5 Sudoeste 9 Oeste 0 -- -- 93
2019-07-21 02:00:00 20.6 0 Calma 9 Oeste 0 -- -- 92
2019-07-21 01:00:00 20.4 0 Calma 4 Oeste 0 -- -- 92
2019-07-21 00:00:00 20.3 2 Oeste 8 Noroeste 0 -- -- 91